Time;durP1;ratioP1;P1;durP2;ratioP2;P2;SDS_P1;SDS_P2;PMS_P1;PMS_P2;Temp;Humidity;BMP_temperature;BMP_pressure;BME280_temperature;BME280_humidity;BME280_pressure;Samples;Min_cycle;Max_cycle;Signal;HPM_P1;HPM_P2
2023/12/29 00:00:02;;;;;;;5.70;4.30;;;;;;;9.53;72.99;100460.44;2511659;28;20051;-81
2023/12/29 00:01:17;;;;;;;4.43;4.03;;;;;;;9.54;72.85;100459.56;2509478;28;20519;-81
2023/12/29 00:02:31;;;;;;;5.55;4.47;;;;;;;9.55;72.94;100466.50;2514691;28;20057;-80
2023/12/29 00:03:45;;;;;;;5.15;4.38;;;;;;;9.55;73.01;100466.50;2514728;28;20050;-79
2023/12/29 00:04:59;;;;;;;5.20;4.55;;;;;;;9.54;72.97;100469.97;2513590;28;20073;-80
2023/12/29 00:06:13;;;;;;;4.80;4.15;;;;;;;9.53;73.02;100473.47;2509697;28;20047;-79
2023/12/29 00:07:26;;;;;;;4.63;4.18;;;;;;;9.53;73.00;100468.25;2511341;28;20054;-80
2023/12/29 00:08:41;;;;;;;4.25;3.75;;;;;;;9.53;73.19;100472.59;2506159;28;20051;-80
2023/12/29 00:09:54;;;;;;;4.80;4.30;;;;;;;9.51;73.07;100467.41;2505466;28;20061;-80
2023/12/29 00:11:09;;;;;;;6.75;4.78;;;;;;;9.50;73.19;100467.41;2504874;28;20056;-79
2023/12/29 00:12:24;;;;;;;9.45;5.72;;;;;;;9.49;73.17;100466.53;2510762;28;20487;-81
2023/12/29 00:13:38;;;;;;;5.03;4.55;;;;;;;9.48;73.32;100461.34;2506590;28;20487;-80
2023/12/29 00:14:51;;;;;;;8.93;5.10;;;;;;;9.46;73.45;100469.16;2507003;28;20051;-80
2023/12/29 00:16:06;;;;;;;7.60;5.47;;;;;;;9.44;73.54;100468.31;2515155;28;20076;-80
2023/12/29 00:17:20;;;;;;;5.18;4.57;;;;;;;9.43;73.51;100471.81;2514316;28;20046;-80
2023/12/29 00:18:34;;;;;;;5.32;4.72;;;;;;;9.43;73.75;100465.72;2515703;28;20050;-79
2023/12/29 00:19:48;;;;;;;6.07;5.53;;;;;;;9.42;73.87;100469.19;2513593;28;20058;-81
2023/12/29 00:21:02;;;;;;;5.00;4.53;;;;;;;9.38;73.89;100471.81;2504424;28;20050;-80
2023/12/29 00:22:15;;;;;;;5.70;5.10;;;;;;;9.37;73.92;100471.81;2510167;28;20054;-80
2023/12/29 00:23:30;;;;;;;6.75;5.00;;;;;;;9.35;73.82;100458.81;2514798;28;20411;-80
2023/12/29 00:24:44;;;;;;;5.85;4.55;;;;;;;9.35;73.98;100473.59;2505247;28;20054;-80
2023/12/29 00:25:58;;;;;;;7.65;4.70;;;;;;;9.33;73.86;100472.75;2504598;28;20057;-79
2023/12/29 00:27:12;;;;;;;6.25;3.88;;;;;;;9.34;73.98;100470.09;2505270;28;20381;-81
2023/12/29 00:28:27;;;;;;;6.75;4.82;;;;;;;9.33;73.90;100460.56;2511175;28;20050;-80
2023/12/29 00:29:41;;;;;;;4.93;4.35;;;;;;;9.34;74.03;100472.72;2514228;28;20042;-80
2023/12/29 00:30:55;;;;;;;6.07;5.57;;;;;;;9.34;73.69;100458.81;2515032;28;20055;-81
2023/12/29 00:32:09;;;;;;;5.05;4.55;;;;;;;9.34;73.92;100462.28;2514792;28;20431;-81
2023/12/29 00:33:23;;;;;;;6.72;5.82;;;;;;;9.34;74.00;100458.81;2508487;28;20046;-80
2023/12/29 00:34:37;;;;;;;5.35;4.85;;;;;;;9.32;73.88;100461.47;2514530;28;20050;-81
2023/12/29 00:35:51;;;;;;;6.97;4.28;;;;;;;9.33;74.02;100451.91;2518003;28;20456;-80
2023/12/29 00:37:05;;;;;;;7.20;5.13;;;;;;;9.31;73.98;100457.09;2514639;28;20043;-80
2023/12/29 00:38:20;;;;;;;5.70;4.63;;;;;;;9.31;74.02;100454.50;2513844;28;20515;-81
2023/12/29 00:39:38;;;;;;;6.53;4.97;;;;;;;9.29;74.02;100442.38;2518199;28;20050;-79
2023/12/29 00:40:52;;;;;;;4.97;4.57;;;;;;;9.26;74.25;100451.06;2517425;28;20047;-79
2023/12/29 00:42:06;;;;;;;5.13;4.63;;;;;;;9.23;74.04;100450.22;2514248;28;20057;-80
2023/12/29 00:43:21;;;;;;;4.72;4.20;;;;;;;9.18;74.29;100458.91;2517852;28;20047;-80
2023/12/29 00:44:36;;;;;;;6.63;4.10;;;;;;;9.17;74.27;100459.81;2518067;28;20057;-81
2023/12/29 00:45:50;;;;;;;4.72;4.32;;;;;;;9.16;74.42;100450.28;2508354;28;20047;-79
2023/12/29 00:47:04;;;;;;;5.05;4.57;;;;;;;9.17;74.60;100454.59;2508133;28;20057;-80
2023/12/29 00:48:18;;;;;;;6.60;6.03;;;;;;;9.20;74.46;100447.66;2508480;28;20440;-81
2023/12/29 00:49:32;;;;;;;6.22;5.13;;;;;;;9.20;74.49;100451.13;2514497;28;20090;-80
2023/12/29 00:50:46;;;;;;;6.20;5.20;;;;;;;9.20;74.52;100451.13;2510358;28;20492;-82
2023/12/29 00:52:02;;;;;;;4.90;4.25;;;;;;;9.20;74.45;100445.06;2515648;28;20050;-79
2023/12/29 00:53:16;;;;;;;4.85;4.38;;;;;;;9.20;74.29;100432.03;2512631;28;20042;-80
2023/12/29 00:54:30;;;;;;;4.88;4.47;;;;;;;9.20;74.34;100432.88;2518276;28;20046;-79
2023/12/29 00:55:44;;;;;;;5.63;5.05;;;;;;;9.22;74.36;100432.88;2518104;28;20076;-79
2023/12/29 00:56:58;;;;;;;4.38;3.97;;;;;;;9.23;74.40;100429.41;2518288;28;20050;-78
2023/12/29 00:58:12;;;;;;;7.15;6.45;;;;;;;9.20;74.00;100424.22;2518534;28;20161;-79
2023/12/29 00:59:25;;;;;;;4.38;3.97;;;;;;;9.18;74.09;100419.00;2511835;28;20633;-81
2023/12/29 01:00:41;;;;;;;5.72;4.68;;;;;;;9.13;74.01;100420.78;2516066;28;20042;-80
2023/12/29 01:01:55;;;;;;;4.82;4.35;;;;;;;9.08;74.20;100422.53;2509319;28;20051;-80
2023/12/29 01:03:09;;;;;;;6.85;5.00;;;;;;;9.04;73.95;100424.31;2518154;28;20050;-80
2023/12/29 01:04:22;;;;;;;5.13;4.20;;;;;;;9.02;74.16;100431.25;2518674;28;20053;-80
2023/12/29 01:05:37;;;;;;;4.40;4.00;;;;;;;9.00;74.13;100429.53;2517775;28;20050;-78
2023/12/29 01:06:50;;;;;;;5.57;5.07;;;;;;;8.97;74.40;100422.63;2508666;28;20527;-80
2023/12/29 01:08:05;;;;;;;5.25;4.75;;;;;;;8.97;74.41;100421.75;2508319;28;20053;-81
2023/12/29 01:09:18;;;;;;;5.78;4.95;;;;;;;8.96;74.39;100431.31;2507615;28;20055;-80
2023/12/29 01:10:33;;;;;;;7.10;5.07;;;;;;;8.95;74.37;100432.16;2508499;28;20089;-80
2023/12/29 01:11:46;;;;;;;6.55;4.70;;;;;;;8.96;74.68;100436.50;2516589;28;20054;-79
2023/12/29 01:13:01;;;;;;;8.57;5.18;;;;;;;8.95;74.59;100432.16;2517789;28;20056;-80
2023/12/29 01:14:14;;;;;;;5.43;4.70;;;;;;;8.97;74.74;100443.44;2518117;28;20042;-79
2023/12/29 01:15:29;;;;;;;5.43;4.80;;;;;;;8.99;74.62;100438.22;2517845;28;20154;-79
2023/12/29 01:16:44;;;;;;;5.10;4.57;;;;;;;8.99;74.64;100433.03;2517458;28;20042;-80
2023/12/29 01:17:58;;;;;;;7.07;4.28;;;;;;;9.01;74.59;100434.75;2507493;28;20124;-79
2023/12/29 01:19:12;;;;;;;7.85;5.60;;;;;;;9.01;74.34;100437.34;2508039;28;20061;-79
2023/12/29 01:20:26;;;;;;;5.47;4.55;;;;;;;9.04;74.49;100433.88;2514885;28;20050;-79
2023/12/29 01:21:39;;;;;;;5.35;4.85;;;;;;;9.02;74.40;100423.44;2508952;28;20070;-80
2023/12/29 01:22:54;;;;;;;5.68;5.18;;;;;;;9.04;74.36;100432.13;2515532;28;20054;-80
2023/12/29 01:24:07;;;;;;;5.70;5.20;;;;;;;9.05;74.40;100431.25;2507298;28;20042;-80
2023/12/29 01:25:22;;;;;;;6.25;4.85;;;;;;;9.05;74.27;100431.25;2512750;28;20046;-79
2023/12/29 01:26:37;;;;;;;5.95;5.25;;;;;;;9.07;74.34;100432.09;2510822;28;20047;-80
2023/12/29 01:27:51;;;;;;;6.45;5.78;;;;;;;9.08;74.15;100441.63;2509253;28;20055;-80
2023/12/29 01:29:05;;;;;;;6.57;5.88;;;;;;;9.10;73.87;100441.63;2516563;28;20049;-78
2023/12/29 01:30:19;;;;;;;7.97;4.88;;;;;;;9.10;73.89;100439.03;2517878;28;20557;-79
2023/12/29 01:31:33;;;;;;;5.50;4.38;;;;;;;9.09;73.92;100435.56;2510975;28;20054;-79
2023/12/29 01:32:49;;;;;;;6.30;4.88;;;;;;;9.08;73.89;100433.81;2515906;28;20054;-80
2023/12/29 01:34:02;;;;;;;4.43;4.00;;;;;;;9.09;73.84;100432.09;2515528;28;20042;-80
2023/12/29 01:35:17;;;;;;;5.65;4.30;;;;;;;9.08;74.11;100433.81;2509233;28;20057;-81
2023/12/29 01:36:30;;;;;;;5.32;4.82;;;;;;;9.08;73.93;100430.34;2515089;28;20054;-80
2023/12/29 01:37:45;;;;;;;6.80;5.40;;;;;;;9.08;74.16;100422.53;2517858;28;20511;-79
2023/12/29 01:38:59;;;;;;;5.57;5.07;;;;;;;9.08;74.05;100427.75;2517992;28;20050;-80
2023/12/29 01:40:13;;;;;;;6.55;5.28;;;;;;;9.08;74.04;100422.53;2518471;28;20056;-80
2023/12/29 01:41:27;;;;;;;10.15;5.38;;;;;;;9.07;73.96;100424.28;2517802;28;20046;-80
2023/12/29 01:42:41;;;;;;;5.97;5.45;;;;;;;9.07;74.05;100418.22;2510969;28;20046;-80
2023/12/29 01:44:17;;;;;;;4.65;4.25;;;;;;;9.07;74.01;100426.88;2518114;28;20046;-78
2023/12/29 01:45:32;;;;;;;5.43;4.93;;;;;;;9.04;73.95;100416.50;2516933;28;20042;-79
2023/12/29 01:46:46;;;;;;;5.60;4.20;;;;;;;9.04;73.97;100421.72;2515957;28;20046;-79
2023/12/29 01:48:02;;;;;;;8.77;5.22;;;;;;;9.04;74.08;100429.53;2507001;28;20055;-81
2023/12/29 01:49:16;;;;;;;6.47;5.78;;;;;;;9.04;73.98;100428.66;2510604;28;20113;-79
2023/12/29 01:50:30;;;;;;;7.88;4.88;;;;;;;9.04;73.96;100424.31;2510592;28;20503;-80
2023/12/29 01:51:45;;;;;;;6.13;5.53;;;;;;;9.06;74.11;100421.69;2515255;28;20069;-79
2023/12/29 01:53:00;;;;;;;5.78;4.53;;;;;;;9.08;73.91;100427.75;2507011;28;20539;-80
2023/12/29 01:54:14;;;;;;;5.95;4.60;;;;;;;9.08;73.95;100432.97;2511061;28;20058;-79
2023/12/29 01:55:29;;;;;;;6.95;4.38;;;;;;;9.08;73.82;100415.59;2515857;28;20512;-80
2023/12/29 01:56:42;;;;;;;5.13;4.63;;;;;;;9.11;73.69;100427.72;2508370;28;20412;-80
2023/12/29 01:57:57;;;;;;;5.72;4.72;;;;;;;9.12;73.64;100416.47;2515289;28;20054;-80
2023/12/29 01:59:10;;;;;;;5.20;4.68;;;;;;;9.12;73.79;100422.53;2510587;28;20050;-79
2023/12/29 02:00:25;;;;;;;6.18;4.70;;;;;;;9.13;73.96;100428.59;2519545;28;20072;-78
2023/12/29 02:01:39;;;;;;;5.55;4.75;;;;;;;9.13;73.81;100416.44;2515447;28;20039;-78
2023/12/29 02:02:53;;;;;;;4.97;4.40;;;;;;;9.14;73.91;100410.38;2516103;28;20137;-79
2023/12/29 02:04:09;;;;;;;5.00;4.50;;;;;;;9.14;73.96;100412.13;2516349;28;20121;-79
2023/12/29 02:05:24;;;;;;;5.75;4.97;;;;;;;9.13;73.71;100406.00;2515581;28;20047;-80
2023/12/29 02:06:38;;;;;;;5.72;4.00;;;;;;;9.14;73.94;100402.56;2516058;28;20074;-80
2023/12/29 02:07:53;;;;;;;5.20;4.35;;;;;;;9.14;73.61;100402.56;2507720;28;20058;-78
2023/12/29 02:09:07;;;;;;;6.07;5.32;;;;;;;9.16;73.59;100403.41;2512252;28;20043;-80
2023/12/29 02:10:22;;;;;;;5.75;4.30;;;;;;;9.18;73.66;100403.38;2511149;28;20093;-82
2023/12/29 02:11:35;;;;;;;5.00;4.38;;;;;;;9.18;73.66;100395.56;2508767;28;20055;-81
2023/12/29 02:12:54;;;;;;;5.95;3.47;;;;;;;9.20;73.71;100400.78;2511006;28;20054;-79
2023/12/29 02:14:07;;;;;;;4.63;4.18;;;;;;;9.20;73.61;100400.78;2506463;28;20100;-80
2023/12/29 02:15:21;;;;;;;4.13;3.72;;;;;;;9.20;73.56;100400.78;2511152;28;20475;-79
2023/12/29 02:16:39;;;;;;;5.65;4.45;;;;;;;9.20;73.55;100398.19;2517040;28;20053;-79
2023/12/29 02:17:59;;;;;;;6.22;5.13;;;;;;;9.21;73.67;100402.50;2516501;28;20056;-80
2023/12/29 02:19:31;;;;;;;4.82;4.32;;;;;;;9.20;73.56;100400.78;2513385;28;20052;-80
2023/12/29 02:20:46;;;;;;;4.32;3.92;;;;;;;9.20;73.61;100400.78;2514994;28;20054;-80
2023/12/29 02:21:59;;;;;;;8.52;4.75;;;;;;;9.21;73.74;100394.69;2517027;28;20058;-79
2023/12/29 02:23:13;;;;;;;5.68;4.80;;;;;;;9.21;73.65;100397.28;2517296;28;20060;-80
2023/12/29 02:24:27;;;;;;;4.72;4.22;;;;;;;9.21;73.58;100392.09;2516616;28;20389;-81
2023/12/29 02:25:43;;;;;;;5.57;4.90;;;;;;;9.20;73.59;100395.56;2516784;28;20052;-80
2023/12/29 02:27:00;;;;;;;6.40;4.07;;;;;;;9.21;73.77;100397.28;2508820;28;20418;-80
2023/12/29 02:28:24;;;;;;;5.22;4.72;;;;;;;9.22;73.74;100399.03;2512975;28;20055;-78
2023/12/29 02:29:38;;;;;;;4.65;4.20;;;;;;;9.21;73.83;100392.09;2513400;28;20507;-79
2023/12/29 02:31:02;;;;;;;7.13;4.35;;;;;;;9.22;73.74;100391.22;2507392;28;20448;-80
2023/12/29 02:32:18;;;;;;;4.57;4.10;;;;;;;9.21;73.73;100390.34;2511284;28;20397;-80
2023/12/29 02:33:36;;;;;;;5.00;4.25;;;;;;;9.20;73.54;100380.81;2516091;28;20042;-79
2023/12/29 02:34:50;;;;;;;5.72;4.53;;;;;;;9.20;73.65;100378.22;2515575;28;20046;-79
2023/12/29 02:36:06;;;;;;;5.72;3.65;;;;;;;9.20;73.53;100385.16;2514893;28;20038;-79
2023/12/29 02:37:20;;;;;;;6.28;5.47;;;;;;;9.21;73.47;100386.88;2510567;28;20526;-79
2023/12/29 02:38:35;;;;;;;4.80;3.97;;;;;;;9.21;73.62;100386.88;2510458;28;20126;-80
2023/12/29 02:39:48;;;;;;;4.97;4.05;;;;;;;9.20;73.43;100388.63;2507052;28;20053;-79
2023/12/29 02:41:05;;;;;;;6.85;6.15;;;;;;;9.20;73.26;100385.16;2516797;28;20422;-78
2023/12/29 02:42:18;;;;;;;4.95;4.20;;;;;;;9.18;73.27;100387.75;2517215;28;20061;-78
2023/12/29 02:43:33;;;;;;;6.93;6.22;;;;;;;9.18;73.48;100388.63;2515511;28;20089;-79
2023/12/29 02:44:46;;;;;;;5.07;4.22;;;;;;;9.17;73.49;100380.84;2507480;28;20046;-78
2023/12/29 02:46:01;;;;;;;9.43;6.38;;;;;;;9.17;73.50;100375.63;2508338;28;20051;-80
2023/12/29 02:47:16;;;;;;;8.15;5.00;;;;;;;9.16;73.62;100371.28;2516422;28;20066;-80
2023/12/29 02:48:31;;;;;;;7.90;6.47;;;;;;;9.14;73.36;100370.44;2515871;28;20054;-80
2023/12/29 02:49:44;;;;;;;7.78;5.00;;;;;;;9.14;73.70;100365.25;2515015;28;20689;-79
2023/12/29 02:50:59;;;;;;;6.25;3.85;;;;;;;9.13;73.56;100356.56;2507827;28;20047;-80
2023/12/29 02:52:12;;;;;;;6.32;4.07;;;;;;;9.12;73.40;100364.38;2509469;28;20069;-80
2023/12/29 02:53:26;;;;;;;4.88;4.43;;;;;;;9.10;73.32;100361.78;2515010;28;20518;-79
2023/12/29 02:54:40;;;;;;;7.18;5.32;;;;;;;9.09;73.52;100356.59;2508096;28;20062;-80
2023/12/29 02:55:54;;;;;;;37.47;25.95;;;;;;;9.07;73.47;100363.56;2514113;28;20054;-80
2023/12/29 02:57:09;;;;;;;7.10;5.32;;;;;;;9.04;73.76;100361.84;2511691;28;20057;-80
2023/12/29 02:58:24;;;;;;;7.57;6.70;;;;;;;9.05;73.65;100370.50;2504333;28;20081;-79
2023/12/29 02:59:37;;;;;;;10.68;7.45;;;;;;;9.03;73.72;100374.84;2509845;28;20038;-80
2023/12/29 03:00:51;;;;;;;5.35;4.85;;;;;;;9.03;73.92;100365.28;2512668;28;20042;-79
2023/12/29 03:02:05;;;;;;;4.68;3.78;;;;;;;9.03;73.86;100373.09;2505788;28;20084;-78
2023/12/29 03:03:19;;;;;;;8.35;7.05;;;;;;;9.03;74.06;100369.66;2508665;28;20052;-80
2023/12/29 03:04:33;;;;;;;10.25;9.00;;;;;;;9.01;73.87;100367.06;2514569;28;20408;-80
2023/12/29 03:05:47;;;;;;;6.60;4.18;;;;;;;9.00;74.01;100370.53;2513886;28;20046;-80
2023/12/29 03:07:01;;;;;;;5.78;4.90;;;;;;;9.00;74.11;100362.72;2514083;28;20055;-79
2023/12/29 03:08:15;;;;;;;18.23;9.75;;;;;;;9.00;74.03;100359.25;2514774;28;20461;-79
2023/12/29 03:09:28;;;;;;;6.68;5.97;;;;;;;9.02;74.28;100376.59;2514136;28;20046;-81
2023/12/29 03:10:43;;;;;;;18.55;16.55;;;;;;;9.02;74.32;100371.38;2514599;28;20050;-79
2023/12/29 03:11:56;;;;;;;8.73;7.82;;;;;;;9.03;74.40;100373.09;2514463;28;20500;-79
2023/12/29 03:13:12;;;;;;;12.35;4.57;;;;;;;9.04;74.35;100372.25;2511234;28;20050;-79
2023/12/29 03:14:25;;;;;;;6.75;6.05;;;;;;;9.05;74.41;100379.19;2509015;28;20042;-79
2023/12/29 03:15:40;;;;;;;8.82;7.93;;;;;;;9.04;74.29;100367.03;2514739;28;20050;-79
2023/12/29 03:16:53;;;;;;;6.93;4.80;;;;;;;9.05;74.54;100366.16;2514195;28;20061;-79
2023/12/29 03:18:08;;;;;;;11.82;9.02;;;;;;;9.06;74.52;100362.69;2514887;28;20053;-80
2023/12/29 03:19:21;;;;;;;7.43;6.72;;;;;;;9.07;74.60;100367.03;2510262;28;20054;-79
2023/12/29 03:20:35;;;;;;;7.50;6.72;;;;;;;9.07;74.91;100361.81;2505123;28;20082;-79
2023/12/29 03:21:49;;;;;;;8.95;6.30;;;;;;;9.07;75.02;100361.81;2504048;28;20054;-79
2023/12/29 03:23:04;;;;;;;8.00;3.88;;;;;;;9.08;75.17;100355.72;2515080;28;20053;-79
2023/12/29 03:24:17;;;;;;;12.88;11.70;;;;;;;9.08;75.13;100368.72;2514464;28;20055;-80
2023/12/29 03:25:31;;;;;;;6.78;5.22;;;;;;;9.06;75.17;100360.09;2514265;28;20056;-80
2023/12/29 03:26:45;;;;;;;5.35;4.22;;;;;;;9.07;75.53;100366.16;2514352;28;20054;-79
2023/12/29 03:28:00;;;;;;;7.53;5.88;;;;;;;9.05;75.24;100362.69;2514840;28;20054;-79
2023/12/29 03:29:15;;;;;;;5.20;4.70;;;;;;;9.02;75.51;100362.72;2514689;28;20130;-80
2023/12/29 03:30:29;;;;;;;6.35;5.75;;;;;;;9.00;75.86;100372.28;2509783;28;20066;-80
2023/12/29 03:31:43;;;;;;;5.38;4.82;;;;;;;8.97;75.82;100365.34;2512758;28;20054;-80
2023/12/29 03:32:57;;;;;;;6.97;4.57;;;;;;;8.95;75.92;100361.88;2505394;28;20532;-79
2023/12/29 03:34:10;;;;;;;5.93;5.05;;;;;;;8.93;75.94;100355.81;2505829;28;20051;-80
2023/12/29 03:35:25;;;;;;;7.38;4.72;;;;;;;8.90;76.21;100361.06;2505416;28;20061;-79
2023/12/29 03:36:38;;;;;;;6.32;4.82;;;;;;;8.87;76.26;100350.66;2512041;28;20134;-80
2023/12/29 03:37:52;;;;;;;4.65;4.15;;;;;;;8.84;76.30;100356.75;2506182;28;20057;-80
2023/12/29 03:39:06;;;;;;;8.13;5.93;;;;;;;8.81;76.34;100359.38;2515075;28;20042;-80
2023/12/29 03:40:20;;;;;;;5.32;4.82;;;;;;;8.79;76.72;100362.88;2514705;28;20508;-79
2023/12/29 03:41:34;;;;;;;6.63;5.72;;;;;;;8.76;76.72;100357.69;2509366;28;20054;-79
2023/12/29 03:42:48;;;;;;;6.75;5.82;;;;;;;8.73;76.88;100359.44;2505335;28;20050;-80
2023/12/29 03:44:03;;;;;;;8.02;7.03;;;;;;;8.71;76.97;100347.31;2513359;28;20046;-79
2023/12/29 03:45:18;;;;;;;5.70;5.10;;;;;;;8.70;77.02;100354.25;2508382;28;20050;-79
2023/12/29 03:46:32;;;;;;;6.80;5.30;;;;;;;8.68;77.19;100356.00;2510661;28;20054;-78
2023/12/29 03:47:47;;;;;;;5.40;4.90;;;;;;;8.67;77.12;100354.28;2505860;28;20695;-80
2023/12/29 03:49:00;;;;;;;9.48;6.40;;;;;;;8.66;77.26;100357.72;2513803;28;20061;-80
2023/12/29 03:50:15;;;;;;;7.30;5.93;;;;;;;8.65;77.35;100363.81;2512027;28;20047;-81
2023/12/29 03:51:28;;;;;;;6.57;5.25;;;;;;;8.66;77.41;100362.06;2504280;28;20428;-81
2023/12/29 03:52:42;;;;;;;6.18;5.15;;;;;;;8.65;77.26;100362.97;2503621;28;20047;-79
2023/12/29 03:53:58;;;;;;;6.25;5.60;;;;;;;8.65;77.29;100361.22;2505116;28;20047;-80
2023/12/29 03:55:12;;;;;;;5.68;5.15;;;;;;;8.63;77.29;100365.56;2511405;28;20042;-79
2023/12/29 03:56:26;;;;;;;6.05;5.40;;;;;;;8.64;77.59;100362.06;2509158;28;20113;-80
2023/12/29 03:57:40;;;;;;;5.97;5.38;;;;;;;8.65;77.45;100365.56;2514449;28;20097;-80
2023/12/29 03:58:54;;;;;;;7.45;5.40;;;;;;;8.63;77.46;100362.94;2513745;28;20069;-80
2023/12/29 04:00:13;;;;;;;5.90;5.07;;;;;;;8.64;77.59;100364.66;2506784;28;20042;-79
2023/12/29 04:01:27;;;;;;;5.68;5.10;;;;;;;8.63;77.54;100362.09;2509090;28;20039;-80
2023/12/29 04:02:42;;;;;;;6.90;6.00;;;;;;;8.63;77.59;100362.09;2511191;28;20050;-79
2023/12/29 04:03:55;;;;;;;8.05;5.75;;;;;;;8.63;77.54;100367.28;2506542;28;20047;-80
2023/12/29 04:05:10;;;;;;;6.65;5.90;;;;;;;8.64;77.51;100362.06;2512488;28;20041;-80
2023/12/29 04:06:24;;;;;;;6.70;4.68;;;;;;;8.63;77.49;100357.75;2508990;28;20046;-80
2023/12/29 04:07:40;;;;;;;7.22;4.80;;;;;;;8.62;77.50;100356.03;2509333;28;20526;-80
2023/12/29 04:08:53;;;;;;;6.40;5.78;;;;;;;8.60;77.85;100349.09;2512592;28;20050;-81
2023/12/29 04:10:08;;;;;;;6.43;5.78;;;;;;;8.60;77.84;100346.50;2514780;28;20495;-80
2023/12/29 04:11:22;;;;;;;6.45;5.53;;;;;;;8.60;77.84;100356.91;2509966;28;20070;-80
2023/12/29 04:12:36;;;;;;;5.88;5.38;;;;;;;8.61;77.89;100348.22;2511189;28;20078;-80
2023/12/29 04:13:50;;;;;;;5.57;4.85;;;;;;;8.61;77.82;100358.63;2506449;28;20050;-79
2023/12/29 04:15:05;;;;;;;6.47;5.18;;;;;;;8.63;78.01;100351.69;2512803;28;20054;-79
2023/12/29 04:16:18;;;;;;;5.35;4.40;;;;;;;8.63;77.96;100349.09;2508600;28;20053;-80
2023/12/29 04:17:34;;;;;;;5.78;5.20;;;;;;;8.62;77.90;100353.44;2509083;28;20057;-80
2023/12/29 04:18:47;;;;;;;11.45;4.85;;;;;;;8.64;77.97;100359.47;2512214;28;20054;-80
2023/12/29 04:20:02;;;;;;;5.57;5.07;;;;;;;8.64;77.95;100349.06;2513987;28;20142;-78
2023/12/29 04:21:15;;;;;;;5.18;4.45;;;;;;;8.66;77.99;100347.31;2511580;28;20042;-80
2023/12/29 04:22:30;;;;;;;5.18;4.53;;;;;;;8.67;77.93;100353.38;2514732;28;20110;-80
2023/12/29 04:23:43;;;;;;;6.97;5.32;;;;;;;8.67;77.71;100346.47;2508830;28;20050;-80
2023/12/29 04:24:57;;;;;;;7.05;4.65;;;;;;;8.68;77.86;100355.13;2512290;28;20052;-80
2023/12/29 04:26:11;;;;;;;6.88;5.93;;;;;;;8.69;78.01;100351.66;2514072;28;20531;-80
2023/12/29 04:27:25;;;;;;;6.50;5.90;;;;;;;8.69;77.83;100357.69;2509842;28;20125;-80
2023/12/29 04:28:39;;;;;;;7.40;4.60;;;;;;;8.71;78.00;100357.72;2510358;28;20046;-79
2023/12/29 04:29:53;;;;;;;5.57;5.07;;;;;;;8.72;77.71;100349.91;2513026;28;20503;-80
2023/12/29 04:31:06;;;;;;;4.88;4.40;;;;;;;8.74;77.55;100358.53;2514448;28;20054;-80
2023/12/29 04:32:21;;;;;;;6.88;4.80;;;;;;;8.75;77.60;100356.81;2510454;28;20073;-80
2023/12/29 04:33:36;;;;;;;6.00;5.07;;;;;;;8.76;77.61;100348.13;2503851;28;20039;-79
2023/12/29 04:34:50;;;;;;;5.60;5.10;;;;;;;8.79;77.38;100355.06;2504496;28;20141;-80
2023/12/29 04:36:05;;;;;;;5.57;4.60;;;;;;;8.80;77.36;100354.19;2512312;28;20046;-80
2023/12/29 04:37:18;;;;;;;5.30;4.80;;;;;;;8.81;77.53;100356.78;2507061;28;20050;-80
2023/12/29 04:38:33;;;;;;;5.13;3.92;;;;;;;8.83;77.26;100348.94;2514163;28;20046;-79
2023/12/29 04:39:46;;;;;;;9.48;4.47;;;;;;;8.84;77.42;100355.91;2507071;28;20051;-80
2023/12/29 04:41:00;;;;;;;5.80;4.80;;;;;;;8.86;77.33;100359.38;2513440;28;20075;-80
2023/12/29 04:42:14;;;;;;;7.20;4.72;;;;;;;8.87;77.15;100361.06;2513816;28;20500;-80
2023/12/29 04:43:28;;;;;;;5.97;5.38;;;;;;;8.87;77.03;100361.06;2514297;28;20056;-79
2023/12/29 04:44:42;;;;;;;6.60;5.95;;;;;;;8.88;76.95;100357.59;2513223;28;20435;-79
2023/12/29 04:45:56;;;;;;;6.82;5.25;;;;;;;8.89;77.32;100359.34;2513725;28;20057;-80
2023/12/29 04:47:10;;;;;;;5.18;4.32;;;;;;;8.90;76.88;100363.66;2514365;28;20089;-79
2023/12/29 04:48:24;;;;;;;5.35;4.28;;;;;;;8.91;77.10;100370.59;2514001;28;20062;-79
2023/12/29 04:49:39;;;;;;;4.97;4.47;;;;;;;8.93;77.02;100366.22;2509699;28;20058;-79
2023/12/29 04:50:53;;;;;;;6.22;4.68;;;;;;;8.94;77.04;100374.03;2512385;28;20125;-79
2023/12/29 04:52:07;;;;;;;3.92;3.53;;;;;;;8.95;76.99;100372.28;2506131;28;20051;-80
2023/12/29 04:53:21;;;;;;;4.63;4.18;;;;;;;8.96;76.71;100371.44;2509783;28;20046;-80
2023/12/29 04:54:35;;;;;;;5.43;4.20;;;;;;;8.98;76.84;100364.47;2509940;28;20050;-80
2023/12/29 04:55:49;;;;;;;5.07;4.60;;;;;;;8.99;76.59;100354.94;2506872;28;20046;-80
2023/12/29 04:57:03;;;;;;;4.22;3.75;;;;;;;9.01;76.78;100366.19;2513226;28;20047;-80
2023/12/29 04:58:17;;;;;;;5.80;4.82;;;;;;;9.01;76.74;100369.69;2514094;28;20053;-79
2023/12/29 04:59:31;;;;;;;4.20;3.80;;;;;;;9.02;76.50;100366.19;2515039;28;20048;-80
2023/12/29 05:00:45;;;;;;;4.50;4.10;;;;;;;9.03;76.77;100374.84;2513923;28;20424;-79
2023/12/29 05:01:58;;;;;;;5.35;4.82;;;;;;;9.01;76.66;100369.69;2514250;28;20053;-80
2023/12/29 05:03:13;;;;;;;6.78;4.40;;;;;;;9.01;76.60;100371.38;2513887;28;20068;-80
2023/12/29 05:04:26;;;;;;;5.45;4.15;;;;;;;8.99;76.84;100378.38;2514111;28;20053;-80
2023/12/29 05:05:42;;;;;;;4.80;4.32;;;;;;;8.95;76.81;100378.34;2513510;28;20042;-79
2023/12/29 05:06:56;;;;;;;8.05;3.90;;;;;;;8.92;77.11;100377.53;2514473;28;20046;-79
2023/12/29 05:08:11;;;;;;;5.53;5.03;;;;;;;8.88;77.11;100379.31;2511069;28;20442;-80
2023/12/29 05:09:24;;;;;;;9.68;5.18;;;;;;;8.86;77.46;100375.84;2503746;28;20047;-79
2023/12/29 05:10:38;;;;;;;5.82;5.13;;;;;;;8.84;77.55;100366.31;2510397;28;20096;-79
2023/12/29 05:11:52;;;;;;;5.32;4.68;;;;;;;8.80;77.69;100370.66;2513357;28;20534;-80
2023/12/29 05:13:06;;;;;;;6.50;5.22;;;;;;;8.77;77.91;100365.47;2513631;28;20053;-80
2023/12/29 05:14:20;;;;;;;5.20;4.70;;;;;;;8.73;77.90;100369.84;2510229;28;20054;-81
2023/12/29 05:15:35;;;;;;;6.30;4.40;;;;;;;8.72;78.06;100367.22;2503630;28;20435;-79
2023/12/29 05:16:48;;;;;;;7.10;4.63;;;;;;;8.69;78.18;100360.31;2503664;28;20076;-79
2023/12/29 05:18:02;;;;;;;4.82;4.32;;;;;;;8.67;78.22;100369.88;2504511;28;20577;-78
2023/12/29 05:19:16;;;;;;;6.65;4.95;;;;;;;8.67;78.44;100363.78;2504128;28;20502;-79
2023/12/29 05:20:30;;;;;;;8.55;4.07;;;;;;;8.65;78.62;100366.41;2504781;28;20050;-79
2023/12/29 05:21:45;;;;;;;5.75;4.60;;;;;;;8.65;78.85;100366.41;2506795;28;20054;-78
2023/12/29 05:23:00;;;;;;;5.70;4.35;;;;;;;8.65;78.98;100360.34;2498099;28;20043;-77
2023/12/29 05:24:13;;;;;;;7.68;4.13;;;;;;;8.64;78.96;100363.81;2495615;28;20062;-78
2023/12/29 05:25:28;;;;;;;4.70;4.20;;;;;;;8.63;79.04;100362.94;2495884;28;20050;-79
2023/12/29 05:26:41;;;;;;;5.32;4.18;;;;;;;8.62;79.05;100366.44;2502365;28;20050;-79
2023/12/29 05:27:55;;;;;;;4.60;4.20;;;;;;;8.63;78.96;100364.69;2505992;28;20488;-78
2023/12/29 05:29:09;;;;;;;4.97;4.40;;;;;;;8.63;78.98;100362.09;2497011;28;20054;-79
2023/12/29 05:30:23;;;;;;;6.65;5.00;;;;;;;8.62;78.98;100366.44;2506127;28;20077;-79
2023/12/29 05:31:37;;;;;;;6.30;5.03;;;;;;;8.61;79.22;100366.44;2500550;28;20051;-79
2023/12/29 05:32:52;;;;;;;5.38;4.78;;;;;;;8.61;79.28;100356.03;2504247;28;20443;-78
2023/12/29 05:34:05;;;;;;;4.47;4.07;;;;;;;8.61;79.32;100367.28;2504246;28;20416;-78
2023/12/29 05:35:20;;;;;;;4.28;3.88;;;;;;;8.62;79.25;100374.25;2496078;28;20047;-79
2023/12/29 05:36:35;;;;;;;5.55;5.05;;;;;;;8.63;79.19;100375.09;2496548;28;20493;-78
2023/12/29 05:37:51;;;;;;;6.28;4.68;;;;;;;8.63;79.10;100372.50;2495526;28;20070;-79
2023/12/29 05:39:05;;;;;;;7.10;6.40;;;;;;;8.61;79.36;100375.09;2505753;28;20046;-79
2023/12/29 05:40:20;;;;;;;39.03;24.58;;;;;;;8.61;79.24;100375.09;2506061;28;20094;-79
2023/12/29 05:41:33;;;;;;;34.25;20.73;;;;;;;8.60;79.27;100368.19;2500891;28;20509;-79
2023/12/29 05:42:48;;;;;;;23.92;14.93;;;;;;;8.57;79.04;100369.91;2503909;28;20042;-79
2023/12/29 05:44:01;;;;;;;31.30;19.98;;;;;;;8.53;78.98;100374.28;2505629;28;20047;-77
2023/12/29 05:45:16;;;;;;;6.57;5.32;;;;;;;8.48;79.08;100363.03;2505680;28;20509;-80
2023/12/29 05:46:30;;;;;;;18.67;13.02;;;;;;;8.45;79.06;100363.91;2506341;28;20051;-79
2023/12/29 05:47:44;;;;;;;21.40;13.60;;;;;;;8.43;78.90;100369.97;2506389;28;20055;-78
2023/12/29 05:48:58;;;;;;;7.90;5.60;;;;;;;8.39;79.13;100357.81;2506225;28;20520;-78